Share

Yosemite, KY

HALLS BACKYARD WEATHER (KKYSCIEN1) Elev 1076 ft | 37.19 °N, 84.62 °W | Change Station

Current weather conditions updated 18 seconds ago

Clear
Clear
51.0 °F
Feels Like 51.0 °F
N
0.0
Wind Variable Wind from NNW
Gusts 5.0 mph
Sunrise 6:59 AM
Sunset 8:18 PM
Moon Waning Gibbous

Today is forecast to be Warmer than yesterday.

Pressure 30.24 in
Visibility 10.0 miles
Clouds Clear
Dew Point 39 °F
Humidity 63%
Rainfall 0.00 in
Snow Depth Not available.
UV 1 out of 16
Pollen 11.00 out of 12
Air Quality Not available.
Flu Activity Sporadic
METAR KDVK 191155Z AUTO 01004KT 10SM CLR 08/05 A3024 RMK AO2

More Conditions Fewer Conditions

Pressure 30.24 in
Visibility 10.0 miles
Clouds Clear
Dew Point 39 °F
Humidity 63%
Rainfall 0.00 in
Snow Depth Not available.
UV 1 out of 16
Pollen 11.00 out of 12
Air Quality Not available.
Flu Activity Sporadic
METAR KDVK 191155Z AUTO 01004KT 10SM CLR 08/05 A3024 RMK AO2

More Conditions Fewer Conditions

10-Day Weather Forecast

Almanac

Astronomy

Apr. 19, 2014 Rise Set
Actual Time 6:59 AM EDT 8:18 PM EDT
Civil Twilight 6:32 AM EDT 8:45 PM EDT
Nautical Twilight 6:00 AM EDT 9:18 PM EDT
Astronomical Twilight 5:26 AM EDT 9:52 PM EDT
Moon No Moon Rise 10:20 AM EDT
Length of Visible Light 14h 13m
Length of Day
13h 18m
Tomorrow will be 2m 13s longer.
Waning Gibbous, 80% of the Moon is Illuminated
Today
Waning Gibbous
Apr 22
Last Quarter
Apr 29
New
May 6
First Quarter
May 14
Full

Today's Extremes

State Highs State Lows

Community

  • Bleeding Hearts
    Bleeding Hearts
  • Sunset Silhouettes
    Sunset Silhouettes
  • FL sunset Perico Isle
    FL sunset Perico Isle
  • Cloudy spring view
    Cloudy spring view
  • Old barn
    Old barn

WunderPhotos

Upload Photos

1,702,687 photos uploaded!

Nearby

Snow Depth

Station Depth Elevation
No new snow has been reported.

Coastal Water Temperatures

Place Temperature
No Stations Reporting

Earthquake Activity

City Distance Mag. Time & Date
Englewood, Tennessee 132 miles 2.8 10:34 PM EDT
2014-04-12
Minimum magnitude displayed is 2.5.

Nearby Weather Stations

Station Location Temp. Windchill Dew Point Humidity Wind Precip. Elev Updated Type
HALLS BACKYARD WEATHER, SCIENCE HILL, KY 51.0 °F - 39 °F 63% NNW  at  0.0 mph 0.00 in / hr 1076 ft 8:08 AM EDT Normal
Perryville, KY, Danville, KY 48.4 °F 48 °F 48 °F 99% SE  at  0.0 mph 0.00 in / hr 915 ft 8:08 AM EDT Normal
Redman Avenue, Campbellsville, KY 53.1 °F - 43 °F 68% ENE  at  7.5 mph 0.00 in / hr 837 ft 8:08 AM EDT Rapid Fire
Berwick Drive, Danville, KY 49.4 °F 49 °F 41 °F 73% WNW  at  0.0 mph 0.00 in / hr 980 ft 8:05 AM EDT Normal

Show More Stations Show Fewer Stations

What do you think?

We're not finished. Please let us know what you like, what you don't like, and what you are still missing.